createdAt,value
2022-10-16T00:01:06.314Z,13.91
2022-10-16T00:02:07.907Z,13.97
2022-10-16T00:03:10.546Z,14.01
2022-10-16T00:04:12.657Z,14.03
2022-10-16T00:05:14.777Z,14.07
2022-10-16T00:06:18.895Z,14.10
2022-10-16T00:07:21.009Z,14.11
2022-10-16T00:08:23.123Z,14.12
2022-10-16T00:09:25.027Z,14.11
2022-10-16T00:10:27.604Z,14.04
2022-10-16T00:11:32.470Z,13.97
2022-10-16T00:12:34.590Z,13.93
2022-10-16T00:13:38.703Z,13.92
2022-10-16T00:14:40.816Z,13.89
2022-10-16T00:15:43.386Z,13.82
2022-10-16T00:16:45.040Z,13.72
2022-10-16T00:17:47.161Z,13.74
2022-10-16T00:18:48.797Z,13.69
2022-10-16T00:19:50.969Z,13.67
2022-10-16T00:20:53.535Z,13.67
2022-10-16T00:21:55.045Z,13.69
2022-10-16T00:22:56.727Z,13.70
2022-10-16T00:24:04.901Z,13.71
2022-10-16T00:25:07.679Z,13.65
2022-10-16T00:26:17.096Z,13.61
2022-10-16T00:27:18.851Z,13.62
2022-10-16T00:28:20.374Z,13.58
2022-10-16T00:29:23.036Z,13.56
2022-10-16T00:30:24.992Z,13.52
2022-10-16T00:31:26.660Z,13.49
2022-10-16T00:32:28.978Z,13.50
2022-10-16T00:33:30.890Z,13.44
2022-10-16T00:34:33.489Z,13.46
2022-10-16T00:35:35.057Z,13.38
2022-10-16T00:36:37.233Z,13.35
2022-10-16T00:37:39.353Z,13.42
2022-10-16T00:38:41.404Z,13.42
2022-10-16T00:39:43.578Z,13.48
2022-10-16T00:40:45.063Z,13.52
2022-10-16T00:41:47.437Z,13.56
2022-10-16T00:42:49.923Z,13.52
2022-10-16T00:43:55.041Z,13.56
2022-10-16T00:44:59.159Z,13.56
2022-10-16T00:46:08.152Z,13.53
2022-10-16T00:47:20.418Z,13.57
2022-10-16T00:48:22.534Z,13.54
2022-10-16T00:49:24.645Z,13.57
2022-10-16T00:50:35.658Z,13.58
2022-10-16T00:51:43.742Z,13.61
2022-10-16T00:52:49.022Z,13.62
2022-10-16T00:53:51.427Z,13.60
2022-10-16T00:54:55.088Z,13.61
2022-10-16T00:55:57.025Z,13.58
2022-10-16T00:57:02.731Z,13.56
2022-10-16T00:58:04.606Z,13.57
2022-10-16T00:59:14.734Z,13.53
2022-10-16T01:00:20.856Z,13.52
2022-10-16T01:01:23.011Z,13.52
2022-10-16T01:02:25.315Z,13.51
2022-10-16T01:03:34.215Z,13.56
2022-10-16T01:04:41.336Z,13.59
2022-10-16T01:05:51.441Z,13.59
2022-10-16T01:07:08.614Z,13.60
2022-10-16T01:08:19.737Z,13.55
2022-10-16T01:09:33.880Z,13.58
2022-10-16T01:10:42.003Z,13.54
2022-10-16T01:11:59.149Z,13.52
2022-10-16T01:13:11.281Z,13.49
2022-10-16T01:14:24.415Z,13.45
2022-10-16T01:15:35.213Z,13.41
2022-10-16T01:16:48.250Z,13.47
2022-10-16T01:18:13.839Z,13.49
2022-10-16T01:19:46.023Z,13.56
2022-10-16T01:21:04.751Z,13.63
2022-10-16T01:22:10.009Z,13.67
2022-10-16T01:23:20.401Z,13.68
2022-10-16T01:24:40.594Z,13.73
2022-10-16T01:26:00.699Z,13.73
2022-10-16T01:27:20.847Z,13.71
2022-10-16T01:28:30.023Z,13.70
2022-10-16T01:29:46.475Z,13.76
2022-10-16T01:30:50.230Z,13.76
2022-10-16T01:31:57.352Z,13.72
2022-10-16T01:33:28.529Z,13.75
2022-10-16T01:34:36.481Z,13.70
2022-10-16T01:35:43.770Z,13.68
2022-10-16T01:36:52.838Z,13.67
2022-10-16T01:38:04.877Z,13.61
2022-10-16T01:39:11.150Z,13.58
2022-10-16T01:40:16.481Z,13.58
2022-10-16T01:41:33.404Z,13.60
2022-10-16T01:42:41.484Z,13.59
2022-10-16T01:44:11.592Z,13.59
2022-10-16T01:45:16.488Z,13.59
2022-10-16T01:46:21.493Z,13.59
2022-10-16T01:47:26.802Z,13.65
2022-10-16T01:48:30.846Z,13.67
2022-10-16T01:49:35.155Z,13.69
2022-10-16T01:50:40.414Z,13.67
2022-10-16T01:51:46.095Z,13.73
2022-10-16T01:52:52.658Z,13.78
2022-10-16T01:53:58.783Z,13.79
2022-10-16T01:55:03.900Z,13.83
2022-10-16T01:56:11.502Z,13.86
2022-10-16T01:57:15.141Z,13.88
2022-10-16T01:58:17.255Z,13.93
2022-10-16T01:59:22.374Z,13.93
2022-10-16T02:00:25.487Z,13.93
2022-10-16T02:01:31.516Z,13.98
2022-10-16T02:02:34.429Z,14.01
2022-10-16T02:03:39.844Z,14.01
2022-10-16T02:04:54.982Z,14.05
2022-10-16T02:06:00.100Z,14.05
2022-10-16T02:07:02.217Z,14.04
2022-10-16T02:08:05.615Z,14.09
2022-10-16T02:09:07.548Z,14.12
2022-10-16T02:10:10.563Z,14.12
2022-10-16T02:11:12.670Z,14.13
2022-10-16T02:12:26.798Z,14.15
2022-10-16T02:13:38.945Z,14.12
2022-10-16T02:14:41.053Z,14.09
2022-10-16T02:15:43.171Z,14.14
2022-10-16T02:16:48.078Z,14.20
2022-10-16T02:17:50.404Z,14.24
2022-10-16T02:18:52.032Z,14.26
2022-10-16T02:19:56.536Z,14.23
2022-10-16T02:21:08.216Z,14.24
2022-10-16T02:22:13.348Z,14.19
2022-10-16T02:23:24.011Z,14.17
2022-10-16T02:24:49.165Z,14.15
2022-10-16T02:25:52.283Z,14.15
2022-10-16T02:27:13.636Z,14.16
2022-10-16T02:28:23.612Z,14.17
2022-10-16T02:29:27.616Z,14.22
2022-10-16T02:30:38.812Z,14.23
2022-10-16T02:31:46.550Z,14.18
2022-10-16T02:32:50.057Z,14.17
2022-10-16T02:33:54.064Z,14.15
2022-10-16T02:34:56.552Z,14.16
2022-10-16T02:35:59.402Z,14.17
2022-10-16T02:37:05.211Z,14.17
2022-10-16T02:38:08.638Z,14.18
2022-10-16T02:39:11.561Z,14.18
2022-10-16T02:40:13.374Z,14.13
2022-10-16T02:41:16.019Z,14.15
2022-10-16T02:42:20.100Z,14.21
2022-10-16T02:43:21.567Z,14.23
2022-10-16T02:44:23.326Z,14.25
2022-10-16T02:45:25.222Z,14.27
2022-10-16T02:46:27.553Z,14.27
2022-10-16T02:47:29.674Z,14.26
2022-10-16T02:48:31.572Z,14.27
2022-10-16T02:49:33.903Z,14.21
2022-10-16T02:50:35.779Z,14.19
2022-10-16T02:51:38.126Z,14.09
2022-10-16T02:52:39.965Z,14.02
2022-10-16T02:53:41.590Z,14.02
2022-10-16T02:54:43.466Z,14.08
2022-10-16T02:55:45.235Z,14.08
2022-10-16T02:56:46.697Z,14.10
2022-10-16T02:57:48.806Z,14.14
2022-10-16T02:58:50.919Z,14.16
2022-10-16T02:59:53.034Z,14.16
2022-10-16T03:00:56.114Z,14.10
2022-10-16T03:01:59.268Z,14.07
2022-10-16T03:03:00.910Z,13.95
2022-10-16T03:04:02.494Z,13.91
2022-10-16T03:05:04.605Z,13.89
2022-10-16T03:06:06.595Z,13.87
2022-10-16T03:07:08.708Z,13.91
2022-10-16T03:08:11.267Z,13.94
2022-10-16T03:09:14.069Z,13.96
2022-10-16T03:10:16.052Z,13.97
2022-10-16T03:11:18.777Z,14.00
2022-10-16T03:12:21.413Z,13.99
2022-10-16T03:13:23.529Z,14.01
2022-10-16T03:15:28.760Z,14.04
2022-10-16T03:16:30.874Z,14.05
2022-10-16T03:17:32.989Z,14.05
2022-10-16T03:18:35.097Z,14.01
2022-10-16T03:19:36.606Z,13.99
2022-10-16T03:20:39.328Z,13.97
2022-10-16T03:21:41.443Z,13.96
2022-10-16T03:22:43.984Z,13.97
2022-10-16T03:23:45.670Z,13.98
2022-10-16T03:24:47.787Z,14.00
2022-10-16T03:25:49.899Z,13.96
2022-10-16T03:26:51.625Z,13.94
2022-10-16T03:27:53.580Z,13.94
2022-10-16T03:28:55.271Z,13.96
2022-10-16T03:29:57.845Z,13.98
2022-10-16T03:30:59.462Z,13.96
2022-10-16T03:32:01.929Z,13.96
2022-10-16T03:33:04.693Z,13.97
2022-10-16T03:34:06.627Z,13.97
2022-10-16T03:35:08.922Z,13.96
2022-10-16T03:36:11.029Z,13.91
2022-10-16T03:37:12.671Z,13.85
2022-10-16T03:38:14.261Z,13.77
2022-10-16T03:39:16.092Z,13.65
2022-10-16T03:40:19.245Z,13.63
2022-10-16T03:41:21.599Z,13.60
2022-10-16T03:42:23.716Z,13.60
2022-10-16T03:43:25.301Z,13.61
2022-10-16T03:44:26.942Z,13.60
2022-10-16T03:45:28.772Z,13.62
2022-10-16T03:46:31.426Z,13.55
2022-10-16T03:47:32.985Z,13.56
2022-10-16T03:48:35.307Z,13.55
2022-10-16T03:49:37.987Z,13.51
2022-10-16T03:50:39.623Z,13.49
2022-10-16T03:51:41.552Z,13.49
2022-10-16T03:52:43.853Z,13.46
2022-10-16T03:53:45.318Z,13.46
2022-10-16T03:54:47.082Z,13.48
2022-10-16T03:55:48.550Z,13.49
2022-10-16T03:56:51.289Z,13.51
2022-10-16T03:57:54.422Z,13.51
2022-10-16T03:58:56.189Z,13.48
2022-10-16T03:59:57.649Z,13.50
2022-10-16T04:00:59.801Z,13.45
2022-10-16T04:02:01.324Z,13.43
2022-10-16T04:03:02.987Z,13.43
2022-10-16T04:04:05.184Z,13.40
2022-10-16T04:05:06.982Z,13.38
2022-10-16T04:06:09.332Z,13.39
2022-10-16T04:07:11.421Z,13.34
2022-10-16T04:08:13.562Z,13.35
2022-10-16T04:09:15.332Z,13.32
2022-10-16T04:10:17.786Z,13.33
2022-10-16T04:11:19.563Z,13.34
2022-10-16T04:12:21.673Z,13.35
2022-10-16T04:13:24.138Z,13.35
2022-10-16T04:14:26.681Z,13.35
2022-10-16T04:15:29.360Z,13.29
2022-10-16T04:16:31.325Z,13.26
2022-10-16T04:17:33.890Z,13.23
2022-10-16T04:18:35.340Z,13.21
2022-10-16T04:19:36.833Z,13.21
2022-10-16T04:20:38.923Z,13.18
2022-10-16T04:21:41.037Z,13.08
2022-10-16T04:22:42.721Z,13.02
2022-10-16T04:23:44.268Z,13.04
2022-10-16T04:24:46.380Z,13.04
2022-10-16T04:25:49.499Z,13.05
2022-10-16T04:26:51.613Z,13.04
2022-10-16T04:27:56.698Z,13.03
2022-10-16T04:28:58.236Z,13.01
2022-10-16T04:30:00.964Z,13.01
2022-10-16T04:31:05.220Z,13.00
2022-10-16T04:32:09.199Z,12.93
2022-10-16T04:33:11.313Z,12.92
2022-10-16T04:34:13.427Z,12.93
2022-10-16T04:35:15.361Z,12.91
2022-10-16T04:36:17.654Z,12.97
2022-10-16T04:37:19.779Z,12.97
2022-10-16T04:38:21.453Z,12.99
2022-10-16T04:39:22.995Z,13.02
2022-10-16T04:40:25.109Z,13.06
2022-10-16T04:41:26.711Z,13.10
2022-10-16T04:42:28.338Z,13.10
2022-10-16T04:43:30.453Z,13.13
2022-10-16T04:44:32.567Z,13.17
2022-10-16T04:45:34.678Z,13.19
2022-10-16T04:46:36.721Z,13.23
2022-10-16T04:47:38.907Z,13.26
2022-10-16T04:48:41.499Z,13.24
2022-10-16T04:49:43.135Z,13.25
2022-10-16T04:50:44.646Z,13.26
2022-10-16T04:51:46.360Z,13.28
2022-10-16T04:52:48.449Z,13.30
2022-10-16T04:53:50.587Z,13.31
2022-10-16T04:54:52.101Z,13.34
2022-10-16T04:55:53.812Z,13.32
2022-10-16T04:56:56.732Z,13.33
2022-10-16T04:57:59.060Z,13.27
2022-10-16T04:59:00.803Z,13.20
2022-10-16T05:00:02.269Z,13.17
2022-10-16T05:01:04.347Z,13.15
2022-10-16T05:02:06.496Z,13.13
2022-10-16T05:03:08.202Z,13.16
2022-10-16T05:04:11.743Z,13.18
2022-10-16T05:05:13.841Z,13.18
2022-10-16T05:06:15.402Z,13.17
2022-10-16T05:07:17.067Z,13.14
2022-10-16T05:08:19.183Z,13.11
2022-10-16T05:09:21.303Z,13.13
2022-10-16T05:10:23.413Z,13.18
2022-10-16T05:11:25.411Z,13.24
2022-10-16T05:12:27.650Z,13.28
2022-10-16T05:13:29.368Z,13.34
2022-10-16T05:14:31.488Z,13.37
2022-10-16T05:15:32.995Z,13.40
2022-10-16T05:16:35.113Z,13.44
2022-10-16T05:17:38.897Z,13.45
2022-10-16T05:18:41.762Z,13.49
2022-10-16T05:19:43.463Z,13.51
2022-10-16T05:20:45.424Z,13.49
2022-10-16T05:21:46.992Z,13.47
2022-10-16T05:22:48.807Z,13.46
2022-10-16T05:23:50.919Z,13.48
2022-10-16T05:24:53.037Z,13.45
2022-10-16T05:25:59.295Z,13.40
2022-10-16T05:27:01.273Z,13.41
2022-10-16T05:28:03.392Z,13.45
2022-10-16T05:29:05.364Z,13.46
2022-10-16T05:30:09.969Z,13.47
2022-10-16T05:31:15.275Z,13.43
2022-10-16T05:32:17.715Z,13.41
2022-10-16T05:33:21.781Z,13.43
2022-10-16T05:34:24.100Z,13.38
2022-10-16T05:35:26.219Z,13.38
2022-10-16T05:36:28.333Z,13.35
2022-10-16T05:37:30.450Z,13.34
2022-10-16T05:38:32.566Z,13.32
2022-10-16T05:39:34.679Z,13.32
2022-10-16T05:40:36.790Z,13.31
2022-10-16T05:41:38.323Z,13.28
2022-10-16T05:42:40.888Z,13.24
2022-10-16T05:43:43.145Z,13.21
2022-10-16T05:44:45.454Z,13.18
2022-10-16T05:46:05.311Z,13.20
2022-10-16T05:47:06.799Z,13.25
2022-10-16T05:48:08.219Z,13.28
2022-10-16T05:49:09.749Z,13.32
2022-10-16T05:50:11.375Z,13.34
2022-10-16T05:51:14.984Z,13.39
2022-10-16T05:52:16.804Z,13.40
2022-10-16T05:53:18.670Z,13.44
2022-10-16T05:54:20.330Z,13.47
2022-10-16T05:55:21.809Z,13.50
2022-10-16T05:56:23.480Z,13.52
2022-10-16T05:57:25.458Z,13.55
2022-10-16T05:58:34.525Z,13.59
2022-10-16T05:59:36.816Z,13.53
2022-10-16T06:00:38.761Z,13.54
2022-10-16T06:01:41.149Z,13.58
2022-10-16T06:02:43.262Z,13.63
2022-10-16T06:03:45.376Z,13.65
2022-10-16T06:04:46.821Z,13.66
2022-10-16T06:05:49.607Z,13.70
2022-10-16T06:06:51.722Z,13.73
2022-10-16T06:07:53.838Z,13.76
2022-10-16T06:08:56.825Z,13.77
2022-10-16T06:09:59.486Z,13.77
2022-10-16T06:11:09.200Z,13.79
2022-10-16T06:12:11.316Z,13.80
2022-10-16T06:13:14.435Z,13.83
2022-10-16T06:14:16.289Z,13.82
2022-10-16T06:15:18.665Z,13.83
2022-10-16T06:16:21.049Z,13.80
2022-10-16T06:17:23.047Z,13.80
2022-10-16T06:18:26.013Z,13.82
2022-10-16T06:19:28.414Z,13.81
2022-10-16T06:20:30.242Z,13.82
2022-10-16T06:21:31.844Z,13.80
2022-10-16T06:22:33.472Z,13.80
2022-10-16T06:23:35.552Z,13.76
2022-10-16T06:24:37.705Z,13.78
2022-10-16T06:25:39.813Z,13.80
2022-10-16T06:26:41.848Z,13.77
2022-10-16T06:27:43.972Z,13.78
2022-10-16T06:28:46.215Z,13.79
2022-10-16T06:29:48.271Z,13.77
2022-10-16T06:30:50.390Z,13.80
2022-10-16T06:31:51.855Z,13.83
2022-10-16T06:32:53.617Z,13.84
2022-10-16T06:33:56.276Z,13.87
2022-10-16T06:34:58.847Z,13.87
2022-10-16T06:36:12.985Z,13.86
2022-10-16T06:37:14.620Z,13.84
2022-10-16T06:38:16.320Z,13.84
2022-10-16T06:39:18.328Z,13.84
2022-10-16T06:40:20.440Z,13.88
2022-10-16T06:41:23.601Z,13.91
2022-10-16T06:42:25.772Z,13.96
2022-10-16T06:43:29.798Z,14.00
2022-10-16T06:44:31.872Z,14.05
2022-10-16T06:45:34.025Z,14.10
2022-10-16T06:46:36.140Z,14.13
2022-10-16T06:47:39.256Z,14.19
2022-10-16T06:48:41.877Z,14.22
2022-10-16T06:49:43.335Z,14.25
2022-10-16T06:50:45.540Z,14.28
2022-10-16T06:51:47.718Z,14.29
2022-10-16T06:52:49.834Z,14.30
2022-10-16T06:54:04.275Z,14.30
2022-10-16T06:55:06.887Z,14.28
2022-10-16T06:56:15.217Z,14.26
2022-10-16T06:57:16.887Z,14.24
2022-10-16T06:58:19.447Z,14.24
2022-10-16T06:59:24.171Z,14.24
2022-10-16T07:00:26.682Z,14.25
2022-10-16T07:01:28.796Z,14.30
2022-10-16T07:02:30.912Z,14.33
2022-10-16T07:03:33.258Z,14.38
2022-10-16T07:04:35.573Z,14.40
2022-10-16T07:05:41.900Z,14.44
2022-10-16T07:06:43.857Z,14.50
2022-10-16T07:07:45.493Z,14.54
2022-10-16T07:08:48.640Z,14.57
2022-10-16T07:09:50.728Z,14.59
2022-10-16T07:11:02.862Z,14.65
2022-10-16T07:12:04.976Z,14.68
2022-10-16T07:13:06.906Z,14.72
2022-10-16T07:14:20.229Z,14.77
2022-10-16T07:15:21.911Z,14.80
2022-10-16T07:16:26.911Z,14.84
2022-10-16T07:17:28.578Z,14.86
2022-10-16T07:19:34.409Z,14.93
2022-10-16T07:20:36.920Z,14.91
2022-10-16T07:21:40.042Z,14.95
2022-10-16T07:22:41.921Z,14.98
2022-10-16T07:23:44.273Z,15.01
2022-10-16T07:24:49.164Z,15.03
2022-10-16T07:25:56.523Z,15.06
2022-10-16T07:26:58.637Z,15.08
2022-10-16T07:28:00.403Z,15.10
2022-10-16T07:29:02.040Z,15.10
2022-10-16T07:30:08.216Z,15.12
2022-10-16T07:31:15.118Z,15.10
2022-10-16T07:32:16.939Z,15.11
2022-10-16T07:33:18.438Z,15.11
2022-10-16T07:34:21.459Z,15.11
2022-10-16T07:35:23.579Z,15.13
2022-10-16T07:36:25.592Z,15.14
2022-10-16T07:37:27.434Z,15.11
2022-10-16T07:38:29.924Z,15.10
2022-10-16T07:39:31.944Z,15.11
2022-10-16T07:40:33.929Z,15.03
2022-10-16T07:41:35.603Z,14.97
2022-10-16T07:42:37.386Z,14.99
2022-10-16T07:43:40.248Z,15.00
2022-10-16T07:44:41.951Z,15.03
2022-10-16T07:46:52.862Z,15.05
2022-10-16T07:47:54.756Z,15.11
2022-10-16T07:48:56.953Z,15.13
2022-10-16T07:49:59.212Z,15.21
2022-10-16T07:51:01.954Z,15.24
2022-10-16T07:52:04.711Z,15.30
2022-10-16T07:53:06.559Z,15.33
2022-10-16T07:54:10.679Z,15.35
2022-10-16T07:55:12.798Z,15.36
2022-10-16T07:56:15.616Z,15.39
2022-10-16T07:57:17.408Z,15.46
2022-10-16T07:58:19.139Z,15.48
2022-10-16T07:59:21.252Z,15.50
2022-10-16T08:00:23.372Z,15.50
2022-10-16T08:01:25.208Z,15.55
2022-10-16T08:02:26.973Z,15.63
2022-10-16T08:03:28.713Z,15.64
2022-10-16T08:04:30.830Z,15.70
2022-10-16T08:05:33.947Z,15.75
2022-10-16T08:06:41.071Z,15.77
2022-10-16T08:07:43.185Z,15.85
2022-10-16T08:08:45.302Z,15.87
2022-10-16T08:09:50.919Z,15.88
2022-10-16T08:10:53.496Z,15.88
2022-10-16T08:11:57.746Z,15.94
2022-10-16T08:13:02.831Z,15.97
2022-10-16T08:14:04.895Z,16.00
2022-10-16T08:15:07.015Z,16.01
2022-10-16T08:16:09.818Z,16.08
2022-10-16T08:17:15.252Z,16.07
2022-10-16T08:18:17.367Z,16.14
2022-10-16T08:19:18.978Z,16.25
2022-10-16T08:20:20.659Z,16.38
2022-10-16T08:21:23.713Z,16.51
2022-10-16T08:22:25.654Z,16.64
2022-10-16T08:23:27.943Z,16.78
2022-10-16T08:24:29.963Z,16.88
2022-10-16T08:25:32.005Z,16.95
2022-10-16T08:26:34.290Z,17.05
2022-10-16T08:27:36.406Z,17.11
2022-10-16T08:28:39.565Z,17.18
2022-10-16T08:29:41.807Z,17.24
2022-10-16T08:30:43.755Z,17.32
2022-10-16T08:31:45.668Z,17.44
2022-10-16T08:32:47.980Z,17.48
2022-10-16T08:33:50.028Z,17.54
2022-10-16T08:34:52.016Z,17.60
2022-10-16T08:35:54.331Z,17.66
2022-10-16T08:36:56.450Z,17.69
2022-10-16T08:37:58.565Z,17.77
2022-10-16T08:39:00.674Z,17.79
2022-10-16T08:40:02.791Z,17.80
2022-10-16T08:41:42.975Z,17.69
2022-10-16T08:43:35.680Z,17.61
2022-10-16T08:45:15.371Z,17.50
2022-10-16T08:46:31.512Z,17.44
2022-10-16T08:47:57.674Z,17.40
2022-10-16T08:49:01.792Z,17.37
2022-10-16T08:50:13.926Z,17.46
2022-10-16T08:51:31.070Z,17.53
2022-10-16T08:52:37.035Z,17.49
2022-10-16T08:53:56.340Z,17.48
2022-10-16T08:54:58.456Z,17.37
2022-10-16T08:56:00.574Z,17.37
2022-10-16T08:57:13.824Z,17.42
2022-10-16T08:58:21.833Z,17.52
2022-10-16T08:59:23.950Z,17.52
2022-10-16T09:00:27.206Z,17.57
2022-10-16T09:01:51.223Z,17.63
2022-10-16T09:03:16.381Z,17.62
2022-10-16T09:04:39.771Z,17.65
2022-10-16T09:06:01.689Z,17.74
2022-10-16T09:07:07.123Z,17.74
2022-10-16T09:08:29.967Z,17.76
2022-10-16T09:09:59.104Z,17.76
2022-10-16T09:11:10.258Z,17.81
2022-10-16T09:12:21.413Z,17.82
2022-10-16T09:13:47.771Z,17.90
2022-10-16T09:15:03.670Z,17.90
2022-10-16T09:16:10.686Z,17.94
2022-10-16T09:17:25.209Z,17.97
2022-10-16T09:18:52.892Z,18.09
2022-10-16T09:20:16.527Z,18.03
2022-10-16T09:21:26.408Z,18.00
2022-10-16T09:22:29.530Z,18.05
2022-10-16T09:23:35.651Z,18.06
2022-10-16T09:24:38.669Z,18.09
2022-10-16T09:25:42.886Z,18.18
2022-10-16T09:26:45.002Z,18.22
2022-10-16T09:27:49.886Z,18.24
2022-10-16T09:28:54.035Z,18.27
2022-10-16T09:29:59.607Z,18.30
2022-10-16T09:31:01.570Z,18.34
2022-10-16T09:32:15.619Z,18.41
2022-10-16T09:33:20.306Z,18.44
2022-10-16T09:34:38.888Z,18.48
2022-10-16T09:35:44.573Z,18.45
2022-10-16T09:36:48.126Z,18.44
2022-10-16T09:37:53.247Z,18.45
2022-10-16T09:39:10.281Z,18.45
2022-10-16T09:40:25.756Z,18.53
2022-10-16T09:41:27.646Z,18.54
2022-10-16T09:42:34.771Z,18.58
2022-10-16T09:43:56.925Z,18.62
2022-10-16T09:45:00.042Z,18.60
2022-10-16T09:46:07.213Z,18.64
2022-10-16T09:47:15.304Z,18.70
2022-10-16T09:48:21.344Z,18.79
2022-10-16T09:49:25.765Z,18.75
2022-10-16T09:50:29.655Z,18.75
2022-10-16T09:51:33.412Z,18.77
2022-10-16T09:52:34.915Z,18.75
2022-10-16T09:53:41.431Z,18.76
2022-10-16T09:54:55.188Z,18.76
2022-10-16T09:55:57.305Z,18.76
2022-10-16T09:57:13.042Z,18.79
2022-10-16T09:58:15.567Z,18.71
2022-10-16T09:59:22.690Z,18.64
2022-10-16T10:00:25.571Z,18.63
2022-10-16T10:01:36.947Z,18.61
2022-10-16T10:02:40.653Z,18.58
2022-10-16T10:03:44.405Z,18.66
2022-10-16T10:04:51.331Z,18.67
2022-10-16T10:05:56.204Z,18.65
2022-10-16T10:06:59.885Z,18.63
2022-10-16T10:08:05.490Z,18.61
2022-10-16T10:09:15.791Z,18.51
2022-10-16T10:10:27.418Z,18.50
2022-10-16T10:11:49.046Z,18.48
2022-10-16T10:12:50.800Z,18.40
2022-10-16T10:13:52.803Z,18.43
2022-10-16T10:14:57.343Z,18.47
2022-10-16T10:15:58.805Z,18.46
2022-10-16T10:17:06.716Z,18.47
2022-10-16T10:18:23.459Z,18.42
2022-10-16T10:19:28.027Z,18.44
2022-10-16T10:20:35.106Z,18.44
2022-10-16T10:21:39.219Z,18.48
2022-10-16T10:22:42.149Z,18.45
2022-10-16T10:23:43.805Z,18.42
2022-10-16T10:24:55.811Z,18.47
2022-10-16T10:26:12.156Z,18.49
2022-10-16T10:27:20.636Z,18.49
2022-10-16T10:28:30.943Z,18.49
2022-10-16T10:29:33.101Z,18.46
2022-10-16T10:30:44.237Z,18.49
2022-10-16T10:32:08.269Z,18.51
2022-10-16T10:33:29.725Z,18.51
2022-10-16T10:34:52.926Z,18.52
2022-10-16T10:36:13.845Z,18.58
2022-10-16T10:37:43.430Z,18.56
2022-10-16T10:38:53.138Z,18.56
2022-10-16T10:40:25.621Z,18.59
2022-10-16T10:41:31.448Z,18.60
2022-10-16T10:42:52.175Z,18.66
2022-10-16T10:44:15.491Z,18.70
2022-10-16T10:45:28.899Z,18.66
2022-10-16T10:46:45.531Z,18.62
2022-10-16T10:48:05.694Z,18.60
2022-10-16T10:49:14.237Z,18.65
2022-10-16T10:50:26.495Z,18.63
2022-10-16T10:51:48.657Z,18.63
2022-10-16T10:53:12.064Z,18.74
2022-10-16T10:54:29.967Z,18.82
2022-10-16T10:55:41.226Z,18.82
2022-10-16T10:57:09.265Z,18.87
2022-10-16T10:58:23.339Z,18.85
2022-10-16T10:59:50.565Z,18.85
2022-10-16T11:01:02.197Z,18.86
2022-10-16T11:02:06.318Z,18.86
2022-10-16T11:03:28.971Z,18.82
2022-10-16T11:05:11.884Z,18.87
2022-10-16T11:06:19.289Z,18.86
2022-10-16T11:07:31.426Z,18.89
2022-10-16T11:08:48.572Z,18.94
2022-10-16T11:09:58.706Z,18.94
2022-10-16T11:11:09.834Z,18.92
2022-10-16T11:12:26.979Z,18.98
2022-10-16T11:13:59.151Z,18.92
2022-10-16T11:15:20.304Z,18.95
2022-10-16T11:16:27.430Z,18.96
2022-10-16T11:17:32.553Z,18.95
2022-10-16T11:19:11.736Z,18.96
2022-10-16T11:20:23.871Z,18.99
2022-10-16T11:21:30.254Z,18.98
2022-10-16T11:22:39.751Z,18.98
2022-10-16T11:23:45.210Z,18.94
2022-10-16T11:25:04.480Z,18.94
2022-10-16T11:26:14.527Z,18.94
2022-10-16T11:27:21.653Z,18.98
2022-10-16T11:28:38.826Z,19.03
2022-10-16T11:29:51.259Z,19.02
2022-10-16T11:31:11.704Z,19.01
2022-10-16T11:32:28.925Z,19.11
2022-10-16T11:33:38.875Z,19.15
2022-10-16T11:34:54.859Z,19.21
2022-10-16T11:36:04.403Z,19.33
2022-10-16T11:37:19.439Z,19.37
2022-10-16T11:38:35.905Z,19.41
2022-10-16T11:39:40.033Z,19.38
2022-10-16T11:40:44.742Z,19.37
2022-10-16T11:41:54.285Z,19.41
2022-10-16T11:43:07.301Z,19.49
2022-10-16T11:44:50.538Z,19.54
2022-10-16T11:46:00.142Z,19.48
2022-10-16T11:49:14.104Z,19.55
2022-10-16T11:50:18.847Z,19.56
2022-10-16T11:51:42.051Z,19.54
2022-10-16T11:53:02.265Z,19.53
2022-10-16T11:54:21.676Z,19.52
2022-10-16T11:55:33.809Z,19.50
2022-10-16T11:56:39.933Z,19.43
2022-10-16T11:57:48.525Z,19.43
2022-10-16T11:59:00.194Z,19.46
2022-10-16T12:00:06.477Z,19.45
2022-10-16T12:01:18.829Z,19.41
2022-10-16T12:02:49.786Z,19.48
2022-10-16T12:04:12.772Z,19.45
2022-10-16T12:05:42.278Z,19.49
2022-10-16T12:06:59.091Z,19.54
2022-10-16T12:08:06.223Z,19.50
2022-10-16T12:09:35.943Z,19.45
2022-10-16T12:11:45.640Z,19.57
2022-10-16T12:12:47.286Z,19.54
2022-10-16T12:13:48.886Z,19.60
2022-10-16T12:15:17.494Z,19.61
2022-10-16T12:16:24.186Z,19.65
2022-10-16T12:17:38.313Z,19.76
2022-10-16T12:18:46.011Z,19.70
2022-10-16T12:20:02.090Z,19.69
2022-10-16T12:21:04.678Z,19.73
2022-10-16T12:22:19.135Z,19.73
2022-10-16T12:23:22.302Z,19.77
2022-10-16T12:24:40.017Z,19.81
2022-10-16T12:25:42.306Z,19.78
2022-10-16T12:26:47.133Z,19.86
2022-10-16T12:27:55.966Z,19.85
2022-10-16T12:29:18.124Z,19.80
2022-10-16T12:30:24.866Z,19.80
2022-10-16T12:31:49.575Z,19.73
2022-10-16T12:33:18.185Z,19.80
2022-10-16T12:34:33.502Z,19.74
2022-10-16T12:35:44.461Z,19.60
2022-10-16T12:36:45.974Z,19.60
2022-10-16T12:37:48.686Z,19.63
2022-10-16T12:38:54.478Z,19.62
2022-10-16T12:39:57.912Z,19.62
2022-10-16T12:41:08.054Z,19.62
2022-10-16T12:42:39.087Z,19.64
2022-10-16T12:43:45.981Z,19.65
2022-10-16T12:44:47.644Z,19.61
2022-10-16T12:46:05.606Z,19.56
2022-10-16T12:47:21.748Z,19.52
2022-10-16T12:48:26.536Z,19.47
2022-10-16T12:49:39.625Z,19.41
2022-10-16T12:50:41.118Z,19.39
2022-10-16T12:51:44.240Z,19.37
2022-10-16T12:52:45.994Z,19.38
2022-10-16T12:53:48.466Z,19.39
2022-10-16T12:54:51.835Z,19.33
2022-10-16T12:56:30.428Z,19.33
2022-10-16T12:57:50.189Z,19.30
2022-10-16T12:59:15.070Z,19.30
2022-10-16T13:00:22.398Z,19.33
2022-10-16T13:01:27.315Z,19.37
2022-10-16T13:02:54.475Z,19.44
2022-10-16T13:04:32.353Z,19.52
2022-10-16T13:05:46.796Z,19.60
2022-10-16T13:07:29.312Z,19.70
2022-10-16T13:08:49.134Z,19.85
2022-10-16T13:10:10.281Z,19.99
2022-10-16T13:11:23.629Z,20.06
2022-10-16T13:12:40.086Z,20.10
2022-10-16T13:14:20.752Z,20.17
2022-10-16T13:15:38.891Z,20.22
2022-10-16T13:16:58.067Z,20.32
2022-10-16T13:18:15.183Z,20.37
2022-10-16T13:19:31.326Z,20.40
2022-10-16T13:21:12.376Z,20.37
2022-10-16T13:22:34.680Z,20.36
2022-10-16T13:24:01.321Z,20.30
2022-10-16T13:25:30.002Z,20.24
2022-10-16T13:26:48.149Z,20.30
2022-10-16T13:28:09.308Z,20.28
2022-10-16T13:29:11.435Z,20.29
2022-10-16T13:30:28.194Z,20.25
2022-10-16T13:31:34.603Z,20.16
2022-10-16T13:32:36.546Z,20.15
2022-10-16T13:33:40.935Z,20.07
2022-10-16T13:34:49.061Z,20.04
2022-10-16T13:35:54.181Z,19.98
2022-10-16T13:36:56.055Z,19.91
2022-10-16T13:38:13.934Z,19.94
2022-10-16T13:39:25.575Z,20.01
2022-10-16T13:40:26.909Z,20.05
2022-10-16T13:41:28.374Z,20.09
2022-10-16T13:42:31.913Z,20.14
2022-10-16T13:43:38.987Z,20.08
2022-10-16T13:44:47.431Z,20.05
2022-10-16T13:45:57.345Z,20.12
2022-10-16T13:47:00.436Z,20.13
2022-10-16T13:48:12.332Z,20.07
2022-10-16T13:49:18.699Z,20.02
2022-10-16T13:50:20.697Z,20.05
2022-10-16T13:52:29.327Z,19.97
2022-10-16T13:53:33.208Z,19.92
2022-10-16T13:54:35.328Z,19.95
2022-10-16T13:55:37.413Z,19.99
2022-10-16T13:56:41.368Z,19.93
2022-10-16T13:57:43.670Z,19.90
2022-10-16T13:58:45.557Z,19.85
2022-10-16T13:59:47.419Z,19.88
2022-10-16T14:00:58.032Z,19.87
2022-10-16T14:02:01.160Z,19.89
2022-10-16T14:03:07.427Z,19.92
2022-10-16T14:04:12.395Z,19.92
2022-10-16T14:05:16.000Z,19.91
2022-10-16T14:06:23.631Z,19.90
2022-10-16T14:07:29.747Z,19.88
2022-10-16T14:08:32.434Z,19.92
2022-10-16T14:09:34.044Z,19.91
2022-10-16T14:10:36.096Z,19.89
2022-10-16T14:11:50.232Z,19.84
2022-10-16T14:13:00.673Z,19.79
2022-10-16T14:14:03.469Z,19.74
2022-10-16T14:15:05.890Z,19.66
2022-10-16T14:16:17.459Z,19.66
2022-10-16T14:17:32.441Z,19.65
2022-10-16T14:18:35.928Z,19.65
2022-10-16T14:19:39.612Z,19.71
2022-10-16T14:20:41.123Z,19.74
2022-10-16T14:21:43.312Z,19.76
2022-10-16T14:22:45.995Z,19.78
2022-10-16T14:23:48.545Z,19.72
2022-10-16T14:24:51.137Z,19.70
2022-10-16T14:25:52.773Z,19.69
2022-10-16T14:26:54.938Z,19.64
2022-10-16T14:28:15.004Z,19.64
2022-10-16T14:29:20.157Z,19.63